sensor_id;sensor_type;location;lat;lon;timestamp;P1;durP1;ratioP1;P2;durP2;ratioP2
10511;SDS011;5304;48.604;2.096;2023-04-06T00:00:30;6.03;;;4.20;;
10511;SDS011;5304;48.604;2.096;2023-04-06T00:03:14;6.77;;;4.70;;
10511;SDS011;5304;48.604;2.096;2023-04-06T00:05:59;5.50;;;4.70;;
10511;SDS011;5304;48.604;2.096;2023-04-06T00:08:44;7.93;;;5.53;;
10511;SDS011;5304;48.604;2.096;2023-04-06T00:11:28;5.60;;;3.87;;
10511;SDS011;5304;48.604;2.096;2023-04-06T00:14:12;6.40;;;4.40;;
10511;SDS011;5304;48.604;2.096;2023-04-06T00:16:57;8.13;;;4.53;;
10511;SDS011;5304;48.604;2.096;2023-04-06T00:19:43;7.67;;;3.97;;
10511;SDS011;5304;48.604;2.096;2023-04-06T00:22:27;4.77;;;4.20;;
10511;SDS011;5304;48.604;2.096;2023-04-06T00:25:11;5.97;;;4.47;;
10511;SDS011;5304;48.604;2.096;2023-04-06T00:27:56;7.33;;;4.30;;
10511;SDS011;5304;48.604;2.096;2023-04-06T00:30:40;5.10;;;4.43;;
10511;SDS011;5304;48.604;2.096;2023-04-06T00:33:25;8.23;;;4.70;;
10511;SDS011;5304;48.604;2.096;2023-04-06T00:36:09;9.90;;;4.43;;
10511;SDS011;5304;48.604;2.096;2023-04-06T00:38:54;6.50;;;4.10;;
10511;SDS011;5304;48.604;2.096;2023-04-06T00:41:39;4.83;;;3.80;;
10511;SDS011;5304;48.604;2.096;2023-04-06T00:44:29;5.53;;;4.00;;
10511;SDS011;5304;48.604;2.096;2023-04-06T00:47:13;8.63;;;4.63;;
10511;SDS011;5304;48.604;2.096;2023-04-06T00:49:58;6.60;;;4.73;;
10511;SDS011;5304;48.604;2.096;2023-04-06T00:52:42;5.57;;;4.43;;
10511;SDS011;5304;48.604;2.096;2023-04-06T00:55:27;5.63;;;3.87;;
10511;SDS011;5304;48.604;2.096;2023-04-06T00:58:12;7.50;;;4.53;;
10511;SDS011;5304;48.604;2.096;2023-04-06T01:00:57;4.87;;;4.33;;
10511;SDS011;5304;48.604;2.096;2023-04-06T01:03:43;6.90;;;4.43;;
10511;SDS011;5304;48.604;2.096;2023-04-06T01:06:31;6.17;;;4.13;;
10511;SDS011;5304;48.604;2.096;2023-04-06T01:09:15;6.43;;;4.57;;
10511;SDS011;5304;48.604;2.096;2023-04-06T01:12:01;5.00;;;4.23;;
10511;SDS011;5304;48.604;2.096;2023-04-06T01:14:45;5.80;;;4.17;;
10511;SDS011;5304;48.604;2.096;2023-04-06T01:17:30;7.03;;;4.30;;
10511;SDS011;5304;48.604;2.096;2023-04-06T01:20:15;7.00;;;4.20;;
10511;SDS011;5304;48.604;2.096;2023-04-06T01:22:59;8.53;;;4.30;;
10511;SDS011;5304;48.604;2.096;2023-04-06T01:25:45;5.83;;;3.80;;
10511;SDS011;5304;48.604;2.096;2023-04-06T01:28:29;6.33;;;4.27;;
10511;SDS011;5304;48.604;2.096;2023-04-06T01:31:14;7.10;;;4.20;;
10511;SDS011;5304;48.604;2.096;2023-04-06T01:33:58;5.13;;;4.20;;
10511;SDS011;5304;48.604;2.096;2023-04-06T01:36:43;5.60;;;4.77;;
10511;SDS011;5304;48.604;2.096;2023-04-06T01:39:27;6.37;;;4.60;;
10511;SDS011;5304;48.604;2.096;2023-04-06T01:42:12;7.63;;;4.83;;
10511;SDS011;5304;48.604;2.096;2023-04-06T01:44:56;7.60;;;4.80;;
10511;SDS011;5304;48.604;2.096;2023-04-06T01:47:42;5.73;;;4.47;;
10511;SDS011;5304;48.604;2.096;2023-04-06T01:50:27;6.53;;;4.30;;
10511;SDS011;5304;48.604;2.096;2023-04-06T01:53:11;5.07;;;4.23;;
10511;SDS011;5304;48.604;2.096;2023-04-06T01:55:55;6.73;;;4.70;;
10511;SDS011;5304;48.604;2.096;2023-04-06T01:58:40;6.00;;;4.60;;
10511;SDS011;5304;48.604;2.096;2023-04-06T02:01:24;6.70;;;4.43;;
10511;SDS011;5304;48.604;2.096;2023-04-06T02:04:09;6.07;;;4.60;;
10511;SDS011;5304;48.604;2.096;2023-04-06T02:06:53;6.50;;;4.70;;
10511;SDS011;5304;48.604;2.096;2023-04-06T02:09:38;6.03;;;4.40;;
10511;SDS011;5304;48.604;2.096;2023-04-06T02:12:22;4.53;;;4.03;;
10511;SDS011;5304;48.604;2.096;2023-04-06T02:15:07;9.07;;;4.87;;
10511;SDS011;5304;48.604;2.096;2023-04-06T02:17:52;8.17;;;5.30;;
10511;SDS011;5304;48.604;2.096;2023-04-06T02:20:37;7.73;;;4.73;;
10511;SDS011;5304;48.604;2.096;2023-04-06T02:23:21;5.87;;;4.10;;
10511;SDS011;5304;48.604;2.096;2023-04-06T02:26:06;7.57;;;4.77;;
10511;SDS011;5304;48.604;2.096;2023-04-06T02:28:50;8.27;;;4.60;;
10511;SDS011;5304;48.604;2.096;2023-04-06T02:31:35;7.40;;;4.53;;
10511;SDS011;5304;48.604;2.096;2023-04-06T02:34:19;5.63;;;4.43;;
10511;SDS011;5304;48.604;2.096;2023-04-06T02:37:04;7.00;;;4.43;;
10511;SDS011;5304;48.604;2.096;2023-04-06T02:39:49;6.43;;;4.30;;
10511;SDS011;5304;48.604;2.096;2023-04-06T02:42:34;4.70;;;4.10;;
10511;SDS011;5304;48.604;2.096;2023-04-06T02:45:19;6.03;;;4.97;;
10511;SDS011;5304;48.604;2.096;2023-04-06T02:48:04;7.67;;;4.47;;
10511;SDS011;5304;48.604;2.096;2023-04-06T02:50:49;5.97;;;4.23;;
10511;SDS011;5304;48.604;2.096;2023-04-06T02:53:33;8.37;;;4.07;;
10511;SDS011;5304;48.604;2.096;2023-04-06T02:56:18;8.90;;;4.90;;
10511;SDS011;5304;48.604;2.096;2023-04-06T02:59:04;6.30;;;4.60;;
10511;SDS011;5304;48.604;2.096;2023-04-06T03:01:48;7.27;;;4.83;;
10511;SDS011;5304;48.604;2.096;2023-04-06T03:04:33;6.70;;;4.60;;
10511;SDS011;5304;48.604;2.096;2023-04-06T03:07:17;8.60;;;5.67;;
10511;SDS011;5304;48.604;2.096;2023-04-06T03:10:02;9.20;;;5.43;;
10511;SDS011;5304;48.604;2.096;2023-04-06T03:12:47;6.70;;;5.00;;
10511;SDS011;5304;48.604;2.096;2023-04-06T03:15:31;6.97;;;4.93;;
10511;SDS011;5304;48.604;2.096;2023-04-06T03:18:17;7.07;;;5.30;;
10511;SDS011;5304;48.604;2.096;2023-04-06T03:21:05;6.80;;;5.63;;
10511;SDS011;5304;48.604;2.096;2023-04-06T03:23:49;8.13;;;5.50;;
10511;SDS011;5304;48.604;2.096;2023-04-06T03:26:34;7.77;;;5.37;;
10511;SDS011;5304;48.604;2.096;2023-04-06T03:29:19;8.33;;;6.40;;
10511;SDS011;5304;48.604;2.096;2023-04-06T03:32:03;8.83;;;5.33;;
10511;SDS011;5304;48.604;2.096;2023-04-06T03:34:47;8.57;;;6.63;;
10511;SDS011;5304;48.604;2.096;2023-04-06T03:37:32;8.67;;;6.03;;
10511;SDS011;5304;48.604;2.096;2023-04-06T03:40:16;7.20;;;5.43;;
10511;SDS011;5304;48.604;2.096;2023-04-06T03:43:01;7.43;;;5.40;;
10511;SDS011;5304;48.604;2.096;2023-04-06T03:45:45;7.97;;;5.57;;
10511;SDS011;5304;48.604;2.096;2023-04-06T03:48:30;6.17;;;5.27;;
10511;SDS011;5304;48.604;2.096;2023-04-06T03:51:14;9.17;;;6.50;;
10511;SDS011;5304;48.604;2.096;2023-04-06T03:53:59;7.07;;;5.30;;
10511;SDS011;5304;48.604;2.096;2023-04-06T03:56:43;6.97;;;5.50;;
10511;SDS011;5304;48.604;2.096;2023-04-06T03:59:27;8.07;;;5.27;;
10511;SDS011;5304;48.604;2.096;2023-04-06T04:02:12;7.60;;;5.37;;
10511;SDS011;5304;48.604;2.096;2023-04-06T04:04:56;7.27;;;5.27;;
10511;SDS011;5304;48.604;2.096;2023-04-06T04:07:41;7.10;;;5.80;;
10511;SDS011;5304;48.604;2.096;2023-04-06T04:10:25;7.17;;;5.50;;
10511;SDS011;5304;48.604;2.096;2023-04-06T04:13:10;8.93;;;5.60;;
10511;SDS011;5304;48.604;2.096;2023-04-06T04:15:54;6.73;;;5.10;;
10511;SDS011;5304;48.604;2.096;2023-04-06T04:18:39;7.73;;;5.30;;
10511;SDS011;5304;48.604;2.096;2023-04-06T04:21:23;7.57;;;5.60;;
10511;SDS011;5304;48.604;2.096;2023-04-06T04:24:09;7.13;;;5.70;;
10511;SDS011;5304;48.604;2.096;2023-04-06T04:26:53;7.43;;;5.90;;
10511;SDS011;5304;48.604;2.096;2023-04-06T04:29:39;10.33;;;6.27;;
10511;SDS011;5304;48.604;2.096;2023-04-06T04:32:23;11.53;;;5.77;;
10511;SDS011;5304;48.604;2.096;2023-04-06T04:35:10;8.27;;;5.73;;
10511;SDS011;5304;48.604;2.096;2023-04-06T04:37:57;7.47;;;5.67;;
10511;SDS011;5304;48.604;2.096;2023-04-06T04:40:41;9.27;;;5.60;;
10511;SDS011;5304;48.604;2.096;2023-04-06T04:43:26;8.57;;;5.60;;
10511;SDS011;5304;48.604;2.096;2023-04-06T04:46:10;8.27;;;5.93;;
10511;SDS011;5304;48.604;2.096;2023-04-06T04:48:55;9.80;;;6.00;;
10511;SDS011;5304;48.604;2.096;2023-04-06T04:51:39;10.57;;;6.93;;
10511;SDS011;5304;48.604;2.096;2023-04-06T04:54:24;10.23;;;7.40;;
10511;SDS011;5304;48.604;2.096;2023-04-06T04:57:08;9.87;;;6.87;;
10511;SDS011;5304;48.604;2.096;2023-04-06T04:59:52;11.77;;;6.90;;
10511;SDS011;5304;48.604;2.096;2023-04-06T05:02:37;9.10;;;6.57;;
10511;SDS011;5304;48.604;2.096;2023-04-06T05:05:21;9.33;;;6.63;;
10511;SDS011;5304;48.604;2.096;2023-04-06T05:08:06;10.77;;;7.60;;
10511;SDS011;5304;48.604;2.096;2023-04-06T05:10:50;10.63;;;8.07;;
10511;SDS011;5304;48.604;2.096;2023-04-06T05:13:35;12.70;;;7.53;;
10511;SDS011;5304;48.604;2.096;2023-04-06T05:16:19;11.77;;;8.00;;
10511;SDS011;5304;48.604;2.096;2023-04-06T05:19:04;12.80;;;8.17;;
10511;SDS011;5304;48.604;2.096;2023-04-06T05:21:48;11.13;;;8.30;;
10511;SDS011;5304;48.604;2.096;2023-04-06T05:24:33;12.97;;;8.13;;
10511;SDS011;5304;48.604;2.096;2023-04-06T05:27:19;11.97;;;8.73;;
10511;SDS011;5304;48.604;2.096;2023-04-06T05:30:03;13.20;;;8.43;;
10511;SDS011;5304;48.604;2.096;2023-04-06T05:32:48;12.43;;;7.90;;
10511;SDS011;5304;48.604;2.096;2023-04-06T05:35:33;13.90;;;7.67;;
10511;SDS011;5304;48.604;2.096;2023-04-06T05:38:18;11.07;;;7.43;;
10511;SDS011;5304;48.604;2.096;2023-04-06T05:41:02;13.07;;;8.87;;
10511;SDS011;5304;48.604;2.096;2023-04-06T05:43:47;13.57;;;8.97;;
10511;SDS011;5304;48.604;2.096;2023-04-06T05:46:31;13.00;;;8.63;;
10511;SDS011;5304;48.604;2.096;2023-04-06T05:49:16;13.37;;;8.87;;
10511;SDS011;5304;48.604;2.096;2023-04-06T05:52:00;11.70;;;8.30;;
10511;SDS011;5304;48.604;2.096;2023-04-06T05:54:45;16.20;;;9.90;;
10511;SDS011;5304;48.604;2.096;2023-04-06T05:57:30;13.67;;;9.03;;
10511;SDS011;5304;48.604;2.096;2023-04-06T06:00:14;13.17;;;9.90;;
10511;SDS011;5304;48.604;2.096;2023-04-06T06:02:59;13.20;;;8.87;;
10511;SDS011;5304;48.604;2.096;2023-04-06T06:05:47;13.20;;;8.73;;
10511;SDS011;5304;48.604;2.096;2023-04-06T06:08:32;10.67;;;8.10;;
10511;SDS011;5304;48.604;2.096;2023-04-06T06:11:17;11.93;;;9.13;;
10511;SDS011;5304;48.604;2.096;2023-04-06T06:14:02;12.60;;;9.37;;
10511;SDS011;5304;48.604;2.096;2023-04-06T06:16:46;13.60;;;10.00;;
10511;SDS011;5304;48.604;2.096;2023-04-06T06:19:30;14.30;;;10.00;;
10511;SDS011;5304;48.604;2.096;2023-04-06T06:22:15;12.43;;;9.50;;
10511;SDS011;5304;48.604;2.096;2023-04-06T06:24:59;13.37;;;9.07;;
10511;SDS011;5304;48.604;2.096;2023-04-06T06:27:44;14.53;;;9.73;;
10511;SDS011;5304;48.604;2.096;2023-04-06T06:30:28;17.90;;;9.70;;
10511;SDS011;5304;48.604;2.096;2023-04-06T06:33:13;16.17;;;10.40;;
10511;SDS011;5304;48.604;2.096;2023-04-06T06:35:58;18.23;;;11.83;;
10511;SDS011;5304;48.604;2.096;2023-04-06T06:38:43;16.27;;;10.67;;
10511;SDS011;5304;48.604;2.096;2023-04-06T06:41:28;15.30;;;11.10;;
10511;SDS011;5304;48.604;2.096;2023-04-06T06:44:13;13.90;;;9.30;;
10511;SDS011;5304;48.604;2.096;2023-04-06T06:46:57;14.43;;;10.60;;
10511;SDS011;5304;48.604;2.096;2023-04-06T06:49:44;19.60;;;10.90;;
10511;SDS011;5304;48.604;2.096;2023-04-06T06:52:28;15.87;;;11.27;;
10511;SDS011;5304;48.604;2.096;2023-04-06T06:55:13;14.77;;;9.83;;
10511;SDS011;5304;48.604;2.096;2023-04-06T06:57:57;16.77;;;10.83;;
10511;SDS011;5304;48.604;2.096;2023-04-06T07:00:42;15.10;;;10.97;;
10511;SDS011;5304;48.604;2.096;2023-04-06T07:03:26;16.53;;;11.60;;
10511;SDS011;5304;48.604;2.096;2023-04-06T07:06:10;13.83;;;10.27;;
10511;SDS011;5304;48.604;2.096;2023-04-06T07:08:55;17.97;;;11.63;;
10511;SDS011;5304;48.604;2.096;2023-04-06T07:11:40;17.67;;;11.83;;
10511;SDS011;5304;48.604;2.096;2023-04-06T07:14:24;19.77;;;12.37;;
10511;SDS011;5304;48.604;2.096;2023-04-06T07:17:09;18.80;;;12.33;;
10511;SDS011;5304;48.604;2.096;2023-04-06T07:19:54;19.30;;;12.23;;
10511;SDS011;5304;48.604;2.096;2023-04-06T07:22:39;17.20;;;11.47;;
10511;SDS011;5304;48.604;2.096;2023-04-06T07:25:26;18.03;;;12.07;;
10511;SDS011;5304;48.604;2.096;2023-04-06T07:28:11;19.60;;;12.50;;
10511;SDS011;5304;48.604;2.096;2023-04-06T07:30:55;16.83;;;12.03;;
10511;SDS011;5304;48.604;2.096;2023-04-06T07:33:40;19.93;;;12.53;;
10511;SDS011;5304;48.604;2.096;2023-04-06T07:36:24;17.57;;;11.33;;
10511;SDS011;5304;48.604;2.096;2023-04-06T07:39:09;18.47;;;12.30;;
10511;SDS011;5304;48.604;2.096;2023-04-06T07:41:53;18.07;;;12.33;;
10511;SDS011;5304;48.604;2.096;2023-04-06T07:44:38;17.53;;;12.43;;
10511;SDS011;5304;48.604;2.096;2023-04-06T07:47:22;21.23;;;12.80;;
10511;SDS011;5304;48.604;2.096;2023-04-06T07:50:07;20.47;;;13.73;;
10511;SDS011;5304;48.604;2.096;2023-04-06T07:52:52;21.90;;;14.03;;
10511;SDS011;5304;48.604;2.096;2023-04-06T07:55:36;19.60;;;13.97;;
10511;SDS011;5304;48.604;2.096;2023-04-06T07:58:21;20.60;;;14.47;;
10511;SDS011;5304;48.604;2.096;2023-04-06T08:01:05;19.30;;;13.80;;
10511;SDS011;5304;48.604;2.096;2023-04-06T08:03:50;22.60;;;15.43;;
10511;SDS011;5304;48.604;2.096;2023-04-06T08:06:35;23.27;;;15.43;;
10511;SDS011;5304;48.604;2.096;2023-04-06T08:09:20;23.50;;;16.10;;
10511;SDS011;5304;48.604;2.096;2023-04-06T08:12:04;21.50;;;14.70;;
10511;SDS011;5304;48.604;2.096;2023-04-06T08:14:49;21.87;;;15.43;;
10511;SDS011;5304;48.604;2.096;2023-04-06T08:17:33;23.03;;;16.37;;
10511;SDS011;5304;48.604;2.096;2023-04-06T08:20:18;22.63;;;15.17;;
10511;SDS011;5304;48.604;2.096;2023-04-06T08:23:03;24.00;;;15.87;;
10511;SDS011;5304;48.604;2.096;2023-04-06T08:25:47;22.20;;;15.37;;
10511;SDS011;5304;48.604;2.096;2023-04-06T08:28:32;21.57;;;13.93;;
10511;SDS011;5304;48.604;2.096;2023-04-06T08:31:17;22.00;;;14.33;;
10511;SDS011;5304;48.604;2.096;2023-04-06T08:34:05;20.80;;;13.73;;
10511;SDS011;5304;48.604;2.096;2023-04-06T08:36:50;21.13;;;14.57;;
10511;SDS011;5304;48.604;2.096;2023-04-06T08:39:35;22.27;;;14.03;;
10511;SDS011;5304;48.604;2.096;2023-04-06T08:42:20;21.30;;;14.30;;
10511;SDS011;5304;48.604;2.096;2023-04-06T08:45:05;20.93;;;13.80;;
10511;SDS011;5304;48.604;2.096;2023-04-06T08:47:50;19.17;;;12.33;;
10511;SDS011;5304;48.604;2.096;2023-04-06T08:50:38;19.63;;;12.80;;
10511;SDS011;5304;48.604;2.096;2023-04-06T08:53:24;17.67;;;12.57;;
10511;SDS011;5304;48.604;2.096;2023-04-06T08:56:09;20.87;;;13.23;;
10511;SDS011;5304;48.604;2.096;2023-04-06T08:58:54;19.37;;;11.90;;
10511;SDS011;5304;48.604;2.096;2023-04-06T09:01:40;18.63;;;11.63;;
10511;SDS011;5304;48.604;2.096;2023-04-06T09:04:26;17.10;;;12.67;;
10511;SDS011;5304;48.604;2.096;2023-04-06T09:07:11;17.20;;;12.23;;
10511;SDS011;5304;48.604;2.096;2023-04-06T09:09:55;20.40;;;12.70;;
10511;SDS011;5304;48.604;2.096;2023-04-06T09:12:40;18.77;;;12.23;;
10511;SDS011;5304;48.604;2.096;2023-04-06T09:15:24;19.07;;;12.87;;
10511;SDS011;5304;48.604;2.096;2023-04-06T09:18:09;19.00;;;13.07;;
10511;SDS011;5304;48.604;2.096;2023-04-06T09:21:00;17.93;;;12.03;;
10511;SDS011;5304;48.604;2.096;2023-04-06T09:23:46;15.60;;;11.77;;
10511;SDS011;5304;48.604;2.096;2023-04-06T09:26:32;19.17;;;11.97;;
10511;SDS011;5304;48.604;2.096;2023-04-06T09:29:23;16.77;;;12.57;;
10511;SDS011;5304;48.604;2.096;2023-04-06T09:32:11;17.47;;;11.07;;
10511;SDS011;5304;48.604;2.096;2023-04-06T09:35:06;14.67;;;11.30;;
10511;SDS011;5304;48.604;2.096;2023-04-06T09:37:52;17.47;;;12.47;;
10511;SDS011;5304;48.604;2.096;2023-04-06T09:40:46;18.03;;;12.40;;
10511;SDS011;5304;48.604;2.096;2023-04-06T09:43:32;16.37;;;11.60;;
10511;SDS011;5304;48.604;2.096;2023-04-06T09:46:17;16.33;;;10.83;;
10511;SDS011;5304;48.604;2.096;2023-04-06T09:49:05;13.93;;;10.03;;
10511;SDS011;5304;48.604;2.096;2023-04-06T09:51:55;15.30;;;10.27;;
10511;SDS011;5304;48.604;2.096;2023-04-06T09:54:42;13.43;;;9.40;;
10511;SDS011;5304;48.604;2.096;2023-04-06T09:57:35;17.70;;;10.60;;
10511;SDS011;5304;48.604;2.096;2023-04-06T10:00:35;14.83;;;10.33;;
10511;SDS011;5304;48.604;2.096;2023-04-06T10:06:28;11.93;;;9.63;;
10511;SDS011;5304;48.604;2.096;2023-04-06T10:09:20;14.30;;;10.03;;
10511;SDS011;5304;48.604;2.096;2023-04-06T10:12:08;14.17;;;9.47;;
10511;SDS011;5304;48.604;2.096;2023-04-06T10:14:54;12.60;;;8.87;;
10511;SDS011;5304;48.604;2.096;2023-04-06T10:17:40;10.00;;;8.20;;
10511;SDS011;5304;48.604;2.096;2023-04-06T10:20:42;12.03;;;9.00;;
10511;SDS011;5304;48.604;2.096;2023-04-06T10:23:37;11.00;;;8.33;;
10511;SDS011;5304;48.604;2.096;2023-04-06T10:26:27;11.13;;;8.47;;
10511;SDS011;5304;48.604;2.096;2023-04-06T10:29:12;13.17;;;8.13;;
10511;SDS011;5304;48.604;2.096;2023-04-06T10:31:56;11.87;;;7.03;;
10511;SDS011;5304;48.604;2.096;2023-04-06T10:34:41;13.20;;;8.67;;
10511;SDS011;5304;48.604;2.096;2023-04-06T10:37:25;11.50;;;7.83;;
10511;SDS011;5304;48.604;2.096;2023-04-06T10:40:19;11.13;;;7.23;;
10511;SDS011;5304;48.604;2.096;2023-04-06T10:43:12;12.97;;;8.20;;
10511;SDS011;5304;48.604;2.096;2023-04-06T10:46:02;10.67;;;8.40;;
10511;SDS011;5304;48.604;2.096;2023-04-06T10:48:47;9.40;;;7.27;;
10511;SDS011;5304;48.604;2.096;2023-04-06T10:51:37;9.70;;;6.90;;
10511;SDS011;5304;48.604;2.096;2023-04-06T10:54:23;11.40;;;7.17;;
10511;SDS011;5304;48.604;2.096;2023-04-06T10:57:09;9.10;;;6.60;;
10511;SDS011;5304;48.604;2.096;2023-04-06T10:59:54;10.20;;;7.37;;
10511;SDS011;5304;48.604;2.096;2023-04-06T11:02:38;14.70;;;7.30;;
10511;SDS011;5304;48.604;2.096;2023-04-06T11:05:23;9.33;;;6.87;;
10511;SDS011;5304;48.604;2.096;2023-04-06T11:08:07;8.80;;;6.90;;
10511;SDS011;5304;48.604;2.096;2023-04-06T11:10:52;9.13;;;6.50;;
10511;SDS011;5304;48.604;2.096;2023-04-06T11:13:51;13.23;;;6.40;;
10511;SDS011;5304;48.604;2.096;2023-04-06T11:16:40;9.53;;;6.67;;
10511;SDS011;5304;48.604;2.096;2023-04-06T11:19:25;10.77;;;6.87;;
10511;SDS011;5304;48.604;2.096;2023-04-06T11:22:09;9.60;;;6.77;;
10511;SDS011;5304;48.604;2.096;2023-04-06T11:25:15;8.50;;;6.33;;
10511;SDS011;5304;48.604;2.096;2023-04-06T11:28:00;9.07;;;6.97;;
10511;SDS011;5304;48.604;2.096;2023-04-06T11:30:45;9.17;;;7.30;;
10511;SDS011;5304;48.604;2.096;2023-04-06T11:33:34;14.00;;;9.07;;
10511;SDS011;5304;48.604;2.096;2023-04-06T11:36:20;9.67;;;5.83;;
10511;SDS011;5304;48.604;2.096;2023-04-06T11:39:05;8.00;;;5.07;;
10511;SDS011;5304;48.604;2.096;2023-04-06T11:42:01;8.27;;;6.10;;
10511;SDS011;5304;48.604;2.096;2023-04-06T11:44:46;7.47;;;4.80;;
10511;SDS011;5304;48.604;2.096;2023-04-06T11:47:33;7.53;;;5.03;;
10511;SDS011;5304;48.604;2.096;2023-04-06T11:50:19;8.93;;;4.90;;
10511;SDS011;5304;48.604;2.096;2023-04-06T11:53:03;6.67;;;4.67;;
10511;SDS011;5304;48.604;2.096;2023-04-06T11:55:47;8.00;;;5.17;;
10511;SDS011;5304;48.604;2.096;2023-04-06T11:58:32;8.47;;;4.97;;
10511;SDS011;5304;48.604;2.096;2023-04-06T12:01:16;5.90;;;4.50;;
10511;SDS011;5304;48.604;2.096;2023-04-06T12:04:01;7.20;;;4.80;;
10511;SDS011;5304;48.604;2.096;2023-04-06T12:06:46;6.90;;;5.30;;
10511;SDS011;5304;48.604;2.096;2023-04-06T12:09:31;6.37;;;5.23;;
10511;SDS011;5304;48.604;2.096;2023-04-06T12:12:16;6.93;;;4.40;;
10511;SDS011;5304;48.604;2.096;2023-04-06T12:15:00;5.97;;;5.10;;
10511;SDS011;5304;48.604;2.096;2023-04-06T12:17:45;7.13;;;5.30;;
10511;SDS011;5304;48.604;2.096;2023-04-06T12:20:29;5.03;;;4.53;;
10511;SDS011;5304;48.604;2.096;2023-04-06T12:23:15;8.33;;;5.00;;
10511;SDS011;5304;48.604;2.096;2023-04-06T12:26:00;6.90;;;5.07;;
10511;SDS011;5304;48.604;2.096;2023-04-06T12:28:45;8.97;;;5.60;;
10511;SDS011;5304;48.604;2.096;2023-04-06T12:31:30;6.40;;;4.90;;
10511;SDS011;5304;48.604;2.096;2023-04-06T12:34:14;6.33;;;4.63;;
10511;SDS011;5304;48.604;2.096;2023-04-06T12:36:58;6.03;;;4.70;;
10511;SDS011;5304;48.604;2.096;2023-04-06T12:39:45;6.00;;;4.43;;
10511;SDS011;5304;48.604;2.096;2023-04-06T12:42:30;6.57;;;4.37;;
10511;SDS011;5304;48.604;2.096;2023-04-06T12:45:14;6.03;;;5.00;;
10511;SDS011;5304;48.604;2.096;2023-04-06T12:47:59;6.17;;;4.53;;
10511;SDS011;5304;48.604;2.096;2023-04-06T12:50:43;6.50;;;4.20;;
10511;SDS011;5304;48.604;2.096;2023-04-06T12:53:28;5.80;;;4.73;;
10511;SDS011;5304;48.604;2.096;2023-04-06T12:56:13;5.77;;;4.40;;
10511;SDS011;5304;48.604;2.096;2023-04-06T12:59:01;7.90;;;4.60;;
10511;SDS011;5304;48.604;2.096;2023-04-06T13:01:46;7.83;;;5.23;;
10511;SDS011;5304;48.604;2.096;2023-04-06T13:04:31;5.20;;;4.60;;
10511;SDS011;5304;48.604;2.096;2023-04-06T13:07:16;7.43;;;4.50;;
10511;SDS011;5304;48.604;2.096;2023-04-06T13:10:01;6.67;;;4.97;;
10511;SDS011;5304;48.604;2.096;2023-04-06T13:12:45;6.87;;;4.13;;
10511;SDS011;5304;48.604;2.096;2023-04-06T13:15:31;7.10;;;4.47;;
10511;SDS011;5304;48.604;2.096;2023-04-06T13:18:16;5.63;;;4.00;;
10511;SDS011;5304;48.604;2.096;2023-04-06T13:21:00;6.07;;;4.13;;
10511;SDS011;5304;48.604;2.096;2023-04-06T13:23:45;5.87;;;4.43;;
10511;SDS011;5304;48.604;2.096;2023-04-06T13:26:30;5.70;;;4.70;;
10511;SDS011;5304;48.604;2.096;2023-04-06T13:29:14;5.47;;;4.87;;
10511;SDS011;5304;48.604;2.096;2023-04-06T13:31:59;5.87;;;4.47;;
10511;SDS011;5304;48.604;2.096;2023-04-06T13:34:44;5.70;;;4.03;;
10511;SDS011;5304;48.604;2.096;2023-04-06T13:37:28;8.20;;;4.50;;
10511;SDS011;5304;48.604;2.096;2023-04-06T13:40:13;5.23;;;4.30;;
10511;SDS011;5304;48.604;2.096;2023-04-06T13:42:58;5.80;;;3.73;;
10511;SDS011;5304;48.604;2.096;2023-04-06T13:45:48;6.57;;;4.40;;
10511;SDS011;5304;48.604;2.096;2023-04-06T13:48:35;6.03;;;4.20;;
10511;SDS011;5304;48.604;2.096;2023-04-06T13:51:20;7.67;;;4.00;;
10511;SDS011;5304;48.604;2.096;2023-04-06T13:54:04;8.43;;;3.97;;
10511;SDS011;5304;48.604;2.096;2023-04-06T13:56:49;6.23;;;4.20;;
10511;SDS011;5304;48.604;2.096;2023-04-06T13:59:35;9.03;;;4.80;;
10511;SDS011;5304;48.604;2.096;2023-04-06T14:02:19;6.03;;;4.50;;
10511;SDS011;5304;48.604;2.096;2023-04-06T14:05:04;6.87;;;4.80;;
10511;SDS011;5304;48.604;2.096;2023-04-06T14:07:49;6.63;;;4.60;;
10511;SDS011;5304;48.604;2.096;2023-04-06T14:10:37;5.63;;;4.83;;
10511;SDS011;5304;48.604;2.096;2023-04-06T14:13:23;8.73;;;4.33;;
10511;SDS011;5304;48.604;2.096;2023-04-06T14:16:08;6.17;;;4.07;;
10511;SDS011;5304;48.604;2.096;2023-04-06T14:18:53;5.23;;;3.97;;
10511;SDS011;5304;48.604;2.096;2023-04-06T14:21:38;4.50;;;3.47;;
10511;SDS011;5304;48.604;2.096;2023-04-06T14:24:23;4.33;;;3.53;;
10511;SDS011;5304;48.604;2.096;2023-04-06T14:27:07;5.77;;;3.40;;
10511;SDS011;5304;48.604;2.096;2023-04-06T14:29:51;5.93;;;2.80;;
10511;SDS011;5304;48.604;2.096;2023-04-06T14:32:37;13.03;;;3.10;;
10511;SDS011;5304;48.604;2.096;2023-04-06T14:35:21;3.53;;;2.23;;
10511;SDS011;5304;48.604;2.096;2023-04-06T14:38:06;5.20;;;2.23;;
10511;SDS011;5304;48.604;2.096;2023-04-06T14:40:50;5.60;;;4.07;;
10511;SDS011;5304;48.604;2.096;2023-04-06T14:43:35;4.00;;;2.00;;
10511;SDS011;5304;48.604;2.096;2023-04-06T14:46:19;4.27;;;2.23;;
10511;SDS011;5304;48.604;2.096;2023-04-06T14:49:04;3.40;;;2.03;;
10511;SDS011;5304;48.604;2.096;2023-04-06T14:51:49;5.57;;;2.70;;
10511;SDS011;5304;48.604;2.096;2023-04-06T14:54:35;4.90;;;3.00;;
10511;SDS011;5304;48.604;2.096;2023-04-06T14:57:19;5.47;;;2.70;;
10511;SDS011;5304;48.604;2.096;2023-04-06T15:00:03;6.40;;;2.87;;
10511;SDS011;5304;48.604;2.096;2023-04-06T15:02:48;6.87;;;3.57;;
10511;SDS011;5304;48.604;2.096;2023-04-06T15:05:33;8.20;;;4.20;;
10511;SDS011;5304;48.604;2.096;2023-04-06T15:08:18;7.43;;;4.33;;
10511;SDS011;5304;48.604;2.096;2023-04-06T15:11:06;5.00;;;3.10;;
10511;SDS011;5304;48.604;2.096;2023-04-06T15:13:50;7.47;;;2.83;;
10511;SDS011;5304;48.604;2.096;2023-04-06T15:16:34;26.40;;;9.93;;
10511;SDS011;5304;48.604;2.096;2023-04-06T15:19:19;3.83;;;3.43;;
10511;SDS011;5304;48.604;2.096;2023-04-06T15:22:03;12.53;;;5.50;;
10511;SDS011;5304;48.604;2.096;2023-04-06T15:24:48;5.57;;;3.70;;
10511;SDS011;5304;48.604;2.096;2023-04-06T15:27:32;5.03;;;3.30;;
10511;SDS011;5304;48.604;2.096;2023-04-06T15:30:17;4.83;;;3.93;;
10511;SDS011;5304;48.604;2.096;2023-04-06T15:33:03;5.20;;;3.20;;
10511;SDS011;5304;48.604;2.096;2023-04-06T15:35:49;5.93;;;2.97;;
10511;SDS011;5304;48.604;2.096;2023-04-06T15:38:33;7.33;;;4.10;;
10511;SDS011;5304;48.604;2.096;2023-04-06T15:41:18;5.57;;;2.50;;
10511;SDS011;5304;48.604;2.096;2023-04-06T15:44:03;13.80;;;5.07;;
10511;SDS011;5304;48.604;2.096;2023-04-06T15:46:48;3.27;;;2.10;;
10511;SDS011;5304;48.604;2.096;2023-04-06T15:49:34;3.37;;;1.77;;
10511;SDS011;5304;48.604;2.096;2023-04-06T15:52:18;4.57;;;2.23;;
10511;SDS011;5304;48.604;2.096;2023-04-06T15:55:04;3.63;;;2.47;;
10511;SDS011;5304;48.604;2.096;2023-04-06T15:57:51;14.37;;;5.87;;
10511;SDS011;5304;48.604;2.096;2023-04-06T16:00:35;14.93;;;4.57;;
10511;SDS011;5304;48.604;2.096;2023-04-06T16:03:20;4.70;;;2.60;;
10511;SDS011;5304;48.604;2.096;2023-04-06T16:06:04;20.47;;;8.37;;
10511;SDS011;5304;48.604;2.096;2023-04-06T16:08:49;6.47;;;2.50;;
10511;SDS011;5304;48.604;2.096;2023-04-06T16:11:34;4.87;;;2.47;;
10511;SDS011;5304;48.604;2.096;2023-04-06T16:14:19;4.87;;;2.60;;
10511;SDS011;5304;48.604;2.096;2023-04-06T16:17:04;5.80;;;2.87;;
10511;SDS011;5304;48.604;2.096;2023-04-06T16:19:49;5.43;;;3.23;;
10511;SDS011;5304;48.604;2.096;2023-04-06T16:22:34;5.90;;;4.13;;
10511;SDS011;5304;48.604;2.096;2023-04-06T16:25:19;6.57;;;4.07;;
10511;SDS011;5304;48.604;2.096;2023-04-06T16:28:04;5.20;;;4.10;;
10511;SDS011;5304;48.604;2.096;2023-04-06T16:30:48;7.03;;;4.43;;
10511;SDS011;5304;48.604;2.096;2023-04-06T16:33:33;4.87;;;4.37;;
10511;SDS011;5304;48.604;2.096;2023-04-06T16:36:23;4.70;;;3.87;;
10511;SDS011;5304;48.604;2.096;2023-04-06T16:39:09;6.93;;;4.00;;
10511;SDS011;5304;48.604;2.096;2023-04-06T16:41:54;5.93;;;4.67;;
10511;SDS011;5304;48.604;2.096;2023-04-06T16:44:39;5.53;;;5.00;;